Time;durP1;ratioP1;P1;durP2;ratioP2;P2;SDS_P1;SDS_P2;PMS_P1;PMS_P2;Temp;Humidity;BMP_temperature;BMP_pressure;BME280_temperature;BME280_humidity;BME280_pressure;Samples;Min_cycle;Max_cycle;Signal;HPM_P1;HPM_P2
2023/10/27 00:01:14;;;;;;;44.90;42.20;;;;;;;15.28;100.00;99943.63;5025997;28;20041;-80
2023/10/27 00:03:41;;;;;;;44.53;42.03;;;;;;;15.13;100.00;99930.97;5029531;28;20490;-80
2023/10/27 00:06:08;;;;;;;40.95;38.55;;;;;;;14.71;100.00;99942.34;5028126;28;20041;-74
2023/10/27 00:08:38;;;;;;;47.53;44.83;;;;;;;15.33;100.00;99935.66;5027146;28;20049;-74
2023/10/27 00:11:06;;;;;;;40.70;38.30;;;;;;;15.13;100.00;99941.66;5040650;28;20065;-74
2023/10/27 00:13:33;;;;;;;39.55;37.25;;;;;;;15.32;100.00;99936.72;5037284;28;20498;-74
2023/10/27 00:15:59;;;;;;;41.08;38.15;;;;;;;15.46;100.00;99937.09;5045355;28;20081;-80
2023/10/27 00:18:26;;;;;;;46.15;43.58;;;;;;;15.30;100.00;99933.50;5017661;28;20071;-80
2023/10/27 00:20:53;;;;;;;45.10;42.58;;;;;;;15.28;100.00;99931.09;5028020;28;20057;-80
2023/10/27 00:23:22;;;;;;;48.80;46.13;;;;;;;15.38;100.00;99932.22;5024887;28;20447;-80
2023/10/27 00:25:51;;;;;;;45.47;42.58;;;;;;;14.82;100.00;99929.88;5015725;28;20489;-80
2023/10/27 00:28:21;;;;;;;51.63;48.63;;;;;;;15.17;100.00;99928.59;5031255;28;20515;-80
2023/10/27 00:30:48;;;;;;;47.78;45.03;;;;;;;15.30;100.00;99918.25;5032606;28;20494;-80
2023/10/27 00:33:15;;;;;;;48.22;45.35;;;;;;;14.96;100.00;99927.59;5027980;28;20052;-80
2023/10/27 00:35:42;;;;;;;48.13;45.33;;;;;;;14.73;100.00;99920.69;5026590;28;20050;-80
2023/10/27 00:38:09;;;;;;;48.80;46.00;;;;;;;14.77;100.00;99908.44;5022818;28;20046;-80
2023/10/27 00:40:36;;;;;;;50.47;47.58;;;;;;;14.76;100.00;99912.16;5029233;28;20049;-79
2023/10/27 00:43:05;;;;;;;46.08;43.38;;;;;;;14.29;100.00;99904.72;5027242;28;20058;-80
2023/10/27 00:45:32;;;;;;;47.80;45.05;;;;;;;14.27;100.00;99901.47;5025657;28;20794;-80
2023/10/27 00:48:00;;;;;;;48.88;45.97;;;;;;;14.27;100.00;99901.47;5025485;28;20435;-80
2023/10/27 00:50:37;;;;;;;43.42;40.92;;;;;;;14.36;100.00;99892.75;5024111;28;20129;-80
2023/10/27 00:53:05;;;;;;;45.90;42.97;;;;;;;14.32;100.00;99891.66;5029543;28;20050;-80
2023/10/27 00:55:37;;;;;;;44.28;41.67;;;;;;;13.91;100.00;99888.50;5034985;28;20416;-79
2023/10/27 00:58:07;;;;;;;42.08;39.58;;;;;;;13.95;100.00;99891.50;5028298;28;20466;-80
2023/10/27 01:00:34;;;;;;;45.05;42.35;;;;;;;13.79;100.00;99900.34;5023723;28;20064;-79
2023/10/27 01:03:01;;;;;;;60.88;42.75;;;;;;;13.90;100.00;99894.91;5028611;28;20046;-80
2023/10/27 01:05:28;;;;;;;46.58;42.90;;;;;;;13.80;100.00;99893.94;5022285;28;20490;-79
2023/10/27 01:07:55;;;;;;;45.08;42.17;;;;;;;13.56;100.00;99893.38;5026087;28;20049;-79
2023/10/27 01:10:31;;;;;;;45.58;42.50;;;;;;;13.35;100.00;99908.28;5020838;28;20053;-74
2023/10/27 01:12:58;;;;;;;39.15;36.88;;;;;;;13.58;100.00;99918.72;5023088;28;20046;-74
2023/10/27 01:15:29;;;;;;;40.22;37.65;;;;;;;13.81;100.00;99915.06;5030332;28;20521;-74
2023/10/27 01:17:56;;;;;;;41.70;38.85;;;;;;;13.92;100.00;99921.34;5030923;28;20053;-74
2023/10/27 01:20:23;;;;;;;38.33;36.13;;;;;;;13.21;100.00;99931.75;5024365;28;21615;-74
2023/10/27 01:23:04;;;;;;;36.33;33.90;;;;;;;13.48;100.00;99938.06;5024731;28;20511;-79
2023/10/27 01:25:38;;;;;;;33.95;31.85;;;;;;;13.47;100.00;99941.81;5038376;28;20140;-80
2023/10/27 01:28:06;;;;;;;42.95;40.45;;;;;;;13.39;100.00;99949.41;5024110;28;20049;-74
2023/10/27 01:30:33;;;;;;;42.05;39.60;;;;;;;13.29;100.00;99945.53;5024455;28;20053;-79
2023/10/27 01:33:02;;;;;;;40.22;37.83;;;;;;;13.30;100.00;99938.31;5030102;28;20763;-80
2023/10/27 01:35:29;;;;;;;38.42;36.08;;;;;;;12.77;100.00;99947.53;5031359;28;20517;-73
2023/10/27 01:37:56;;;;;;;38.55;36.25;;;;;;;12.85;100.00;99944.47;5030758;28;20132;-79
2023/10/27 01:40:24;;;;;;;39.40;37.15;;;;;;;12.91;100.00;99940.84;5029847;28;20069;-74
2023/10/27 01:43:02;;;;;;;40.17;37.92;;;;;;;12.80;100.00;99942.53;5027313;28;20041;-74
2023/10/27 01:45:29;;;;;;;37.63;35.53;;;;;;;12.96;100.00;99938.28;5040166;28;20053;-74
2023/10/27 01:47:56;;;;;;;41.28;39.08;;;;;;;13.01;100.00;99934.88;5027498;28;20959;-74
2023/10/27 01:50:23;;;;;;;40.03;37.72;;;;;;;13.06;100.00;99938.44;5023931;28;20417;-74
2023/10/27 01:52:50;;;;;;;45.63;43.13;;;;;;;13.00;100.00;99935.94;5020670;28;20045;-74
2023/10/27 01:55:17;;;;;;;47.83;45.00;;;;;;;12.72;100.00;99931.44;5024668;28;20060;-74
2023/10/27 01:57:45;;;;;;;44.53;41.83;;;;;;;12.72;100.00;99929.59;5023509;28;20438;-74
2023/10/27 02:00:15;;;;;;;49.42;46.45;;;;;;;13.00;100.00;99922.59;5024765;28;20045;-74
2023/10/27 02:02:44;;;;;;;47.30;44.47;;;;;;;12.69;100.00;99922.06;5020770;28;20049;-79
2023/10/27 02:05:13;;;;;;;51.72;48.75;;;;;;;12.66;100.00;99921.75;5025929;28;20053;-80
2023/10/27 02:07:40;;;;;;;57.50;54.50;;;;;;;12.92;100.00;99917.66;5024162;28;20504;-79
2023/10/27 02:10:08;;;;;;;57.00;54.00;;;;;;;12.92;100.00;99929.16;5024294;28;20072;-79
2023/10/27 02:12:34;;;;;;;67.63;64.38;;;;;;;12.83;100.00;99933.25;5040490;28;20446;-80
2023/10/27 02:15:03;;;;;;;62.65;59.25;;;;;;;12.88;100.00;99932.53;5020898;28;20053;-80
2023/10/27 02:17:30;;;;;;;68.65;62.80;;;;;;;12.97;100.00;99933.75;5035875;28;20521;-79
2023/10/27 02:19:57;;;;;;;74.00;70.20;;;;;;;13.04;100.00;99937.88;5025499;28;20060;-79
2023/10/27 02:22:32;;;;;;;40.33;37.92;;;;;;;12.96;100.00;99934.81;5033361;28;20048;-80
2023/10/27 02:24:59;;;;;;;37.95;35.75;;;;;;;12.69;100.00;99930.06;5031631;28;20057;-80
2023/10/27 02:27:26;;;;;;;40.63;38.13;;;;;;;12.41;100.00;99935.41;5024967;28;20064;-80
2023/10/27 02:30:00;;;;;;;35.55;33.25;;;;;;;12.72;100.00;99956.22;5026562;28;20644;-79
2023/10/27 02:32:28;;;;;;;38.08;35.80;;;;;;;12.88;100.00;99949.31;5024152;28;20050;-80
2023/10/27 02:34:55;;;;;;;43.85;41.25;;;;;;;12.96;100.00;99948.13;5026652;28;20805;-79
2023/10/27 02:37:27;;;;;;;38.08;35.90;;;;;;;12.89;100.00;99947.47;5027371;28;20057;-80
2023/10/27 02:39:54;;;;;;;38.55;36.25;;;;;;;12.65;100.00;99944.09;5019188;28;20526;-80
2023/10/27 02:42:26;;;;;;;38.90;36.60;;;;;;;12.54;100.00;99946.56;5035355;28;20047;-80
2023/10/27 02:44:53;;;;;;;29.75;27.88;;;;;;;12.65;100.00;99944.91;5028866;28;20049;-80
2023/10/27 02:47:20;;;;;;;32.47;30.55;;;;;;;12.78;100.00;99943.81;5028363;28;20061;-80
2023/10/27 02:49:49;;;;;;;39.80;37.55;;;;;;;12.74;100.00;99935.50;5016885;28;20459;-80
2023/10/27 02:52:16;;;;;;;60.10;56.90;;;;;;;12.82;100.00;99935.09;5027834;28;20052;-80
2023/10/27 02:54:47;;;;;;;53.90;50.83;;;;;;;12.74;100.00;99935.50;5032639;28;20493;-80
2023/10/27 02:57:14;;;;;;;68.05;64.55;;;;;;;12.75;100.00;99931.78;5032249;28;20041;-79
2023/10/27 02:59:41;;;;;;;55.63;52.55;;;;;;;12.92;100.00;99931.81;5025245;28;20060;-74
2023/10/27 03:02:08;;;;;;;51.70;48.75;;;;;;;13.16;100.00;99929.00;5042362;28;20051;-74
2023/10/27 03:04:35;;;;;;;43.55;41.05;;;;;;;13.25;100.00;99927.56;5028079;28;20049;-74
2023/10/27 03:07:04;;;;;;;48.20;45.60;;;;;;;12.86;100.00;99924.78;5025752;28;20061;-74
2023/10/27 03:09:31;;;;;;;49.63;47.03;;;;;;;13.07;100.00;99926.75;5027473;28;20050;-73
2023/10/27 03:11:58;;;;;;;39.00;36.70;;;;;;;12.85;100.00;99915.16;5032630;28;20049;-74
2023/10/27 03:14:24;;;;;;;41.85;39.35;;;;;;;12.64;100.00;99926.50;5035398;28;20131;-74
2023/10/27 03:16:51;;;;;;;50.38;47.47;;;;;;;12.90;100.00;99938.44;5035826;28;20526;-74
2023/10/27 03:19:30;;;;;;;47.15;44.75;;;;;;;13.07;100.00;99932.06;5031489;28;21518;-74
2023/10/27 03:22:28;;;;;;;38.17;35.97;;;;;;;12.96;100.00;99942.81;5030490;28;20053;-80
2023/10/27 03:25:03;;;;;;;37.70;35.70;;;;;;;13.02;100.00;99934.66;5034188;28;20459;-79
2023/10/27 03:27:30;;;;;;;32.88;31.17;;;;;;;13.18;100.00;99945.56;5024526;28;20054;-79
2023/10/27 03:30:17;;;;;;;41.90;39.80;;;;;;;12.92;100.00;99947.81;5022910;28;20497;-79
2023/10/27 03:32:44;;;;;;;38.10;36.00;;;;;;;12.92;100.00;99945.16;5021811;28;20511;-80
2023/10/27 03:35:14;;;;;;;38.58;36.47;;;;;;;12.87;100.00;99941.56;5031718;28;20045;-79
2023/10/27 03:37:44;;;;;;;36.03;34.03;;;;;;;12.88;100.00;99943.19;5021020;28;20136;-79
2023/10/27 03:40:12;;;;;;;36.58;34.47;;;;;;;12.75;100.00;99941.63;5033898;28;20099;-80
2023/10/27 03:42:51;;;;;;;42.50;40.10;;;;;;;12.51;100.00;99939.06;5036299;28;20052;-79
2023/10/27 03:45:23;;;;;;;42.90;40.30;;;;;;;12.55;100.00;99942.03;5029914;28;20053;-79
2023/10/27 03:47:49;;;;;;;38.00;35.72;;;;;;;12.70;100.00;99929.00;5032282;28;20541;-79
2023/10/27 03:50:16;;;;;;;36.45;34.13;;;;;;;12.82;100.00;99926.28;5027926;28;20052;-78
2023/10/27 03:53:00;;;;;;;35.17;32.47;;;;;;;13.03;100.00;99924.78;5021548;28;20038;-78
2023/10/27 03:55:27;;;;;;;36.35;33.83;;;;;;;13.07;100.00;99924.06;5027113;28;20049;-78
2023/10/27 03:57:55;;;;;;;32.25;29.65;;;;;;;12.88;100.00;99927.19;5036589;28;20052;-78
2023/10/27 04:00:24;;;;;;;36.78;34.97;;;;;;;13.12;100.00;99914.53;5024388;28;20041;-78
2023/10/27 04:02:51;;;;;;;34.97;33.13;;;;;;;13.25;100.00;99915.06;5015946;28;20530;-78
2023/10/27 04:05:18;;;;;;;37.45;35.47;;;;;;;13.25;100.00;99914.22;5025909;28;20055;-78
2023/10/27 04:07:45;;;;;;;24.80;23.50;;;;;;;13.03;100.00;99908.78;5026950;28;20054;-78
2023/10/27 04:10:13;;;;;;;31.15;29.65;;;;;;;12.95;100.00;99914.50;5016149;28;20060;-78
2023/10/27 04:12:40;;;;;;;32.55;30.95;;;;;;;12.77;100.00;99902.25;5026776;28;20818;-78
2023/10/27 04:15:08;;;;;;;27.77;26.38;;;;;;;12.78;100.00;99907.31;5014711;28;20046;-78
2023/10/27 04:17:35;;;;;;;29.55;26.88;;;;;;;12.54;100.00;99898.63;5021575;28;20163;-73
2023/10/27 04:20:03;;;;;;;24.60;23.27;;;;;;;12.64;100.00;99887.34;4944193;28;20053;-74
2023/10/27 04:22:34;;;;;;;30.17;28.48;;;;;;;12.56;100.00;99891.22;4996765;28;20062;-73
2023/10/27 04:25:05;;;;;;;28.45;26.85;;;;;;;12.72;100.00;99900.28;5001219;28;20049;-74
2023/10/27 04:27:33;;;;;;;29.92;28.23;;;;;;;12.65;100.00;99893.47;5002460;28;20048;-74
2023/10/27 04:30:08;;;;;;;34.65;32.75;;;;;;;12.57;100.00;99892.81;5002638;28;20065;-74
2023/10/27 04:32:39;;;;;;;33.58;31.77;;;;;;;12.62;100.00;99892.13;5001448;28;20651;-74
2023/10/27 04:35:06;;;;;;;36.28;34.28;;;;;;;12.48;100.00;99894.25;5001912;28;20038;-73
2023/10/27 04:37:33;;;;;;;40.13;37.92;;;;;;;12.40;100.00;99896.47;5009495;28;20065;-74
2023/10/27 04:40:06;;;;;;;32.60;30.80;;;;;;;12.41;100.00;99887.47;5001978;28;20046;-74
2023/10/27 04:42:35;;;;;;;40.03;27.70;;;;;;;12.49;100.00;99895.84;4671469;23;10001777;-73
2023/10/27 04:45:03;;;;;;;28.73;27.23;;;;;;;12.66;100.00;99903.09;5004377;28;20042;-72
2023/10/27 04:47:38;;;;;;;31.80;30.10;;;;;;;12.56;100.00;99899.19;5003103;28;20064;-73
2023/10/27 04:50:08;;;;;;;25.42;24.05;;;;;;;12.62;100.00;99908.09;4997783;28;20049;-73
2023/10/27 04:52:45;;;;;;;24.30;22.90;;;;;;;12.54;100.00;99903.16;5001991;28;20155;-72
2023/10/27 04:55:12;;;;;;;20.85;19.55;;;;;;;12.53;100.00;99906.88;5007675;28;21246;-72
2023/10/27 04:57:41;;;;;;;22.48;20.98;;;;;;;12.56;100.00;99904.53;5002169;28;20058;-73
2023/10/27 05:00:08;;;;;;;22.55;21.15;;;;;;;12.61;100.00;99906.47;5005348;28;20057;-72
2023/10/27 05:02:36;;;;;;;26.77;25.13;;;;;;;12.72;100.00;99905.59;5005314;28;20097;-73
2023/10/27 05:05:03;;;;;;;22.58;21.08;;;;;;;12.70;100.00;99904.22;5000463;28;20062;-72
2023/10/27 05:07:30;;;;;;;21.70;20.30;;;;;;;12.69;100.00;99905.28;4999652;28;20507;-73
2023/10/27 05:09:57;;;;;;;21.48;20.15;;;;;;;12.98;100.00;99901.53;5005756;28;20050;-73
2023/10/27 05:12:25;;;;;;;23.17;21.77;;;;;;;12.96;100.00;99908.16;5002210;28;20061;-72
2023/10/27 05:14:57;;;;;;;23.98;22.58;;;;;;;12.88;100.00;99914.66;5002241;28;20399;-73
2023/10/27 05:17:24;;;;;;;20.52;19.33;;;;;;;13.08;100.00;99911.56;5005115;28;20057;-73
2023/10/27 05:19:51;;;;;;;23.88;22.13;;;;;;;13.28;100.00;99913.75;5001475;28;20490;-72
2023/10/27 05:22:18;;;;;;;21.52;20.30;;;;;;;16.85;100.00;99899.94;4998270;28;20054;-82
2023/10/27 05:24:45;;;;;;;24.13;22.73;;;;;;;19.05;100.00;99891.13;5005116;28;20050;-81
2023/10/27 05:27:12;;;;;;;21.65;20.35;;;;;;;19.97;100.00;99886.69;5005337;28;20053;-82
2023/10/27 05:29:39;;;;;;;22.27;20.88;;;;;;;20.26;100.00;99883.91;5005008;28;20057;-80
2023/10/27 05:32:07;;;;;;;22.58;21.17;;;;;;;20.47;100.00;99870.94;5000961;28;20088;-82
2023/10/27 05:34:34;;;;;;;22.60;21.25;;;;;;;20.62;100.00;99869.97;5008457;28;20050;-79
2023/10/27 05:37:01;;;;;;;22.20;20.77;;;;;;;16.05;100.00;99886.06;5001623;28;20046;-73
2023/10/27 05:39:28;;;;;;;24.35;23.05;;;;;;;14.74;100.00;99898.28;5006930;28;20042;-74
2023/10/27 05:41:55;;;;;;;21.70;20.40;;;;;;;14.33;100.00;99898.59;5006578;28;20050;-73
2023/10/27 05:44:22;;;;;;;20.60;19.40;;;;;;;14.02;100.00;99902.78;5007380;28;20041;-73
2023/10/27 05:46:49;;;;;;;22.35;21.05;;;;;;;14.18;100.00;99891.22;5004225;28;20522;-73
2023/10/27 05:49:17;;;;;;;22.55;21.35;;;;;;;14.95;100.00;99896.56;5005004;28;20514;-73
2023/10/27 05:51:45;;;;;;;23.35;21.92;;;;;;;14.77;100.00;99885.19;4996112;28;20415;-76
2023/10/27 05:54:12;;;;;;;21.90;20.50;;;;;;;15.05;100.00;99891.31;4998961;28;20669;-76
2023/10/27 05:56:39;;;;;;;22.45;21.05;;;;;;;15.10;100.00;99889.50;5006999;28;20088;-76
2023/10/27 05:59:06;;;;;;;22.55;21.00;;;;;;;15.22;100.00;99880.47;5009946;28;20164;-76
2023/10/27 06:01:34;;;;;;;22.60;21.10;;;;;;;15.40;100.00;99874.72;5005460;28;20173;-77
2023/10/27 06:04:08;;;;;;;22.55;21.15;;;;;;;15.43;100.00;99882.25;5001994;28;20424;-76
2023/10/27 06:06:36;;;;;;;22.65;21.13;;;;;;;15.38;100.00;99878.72;4992421;28;20069;-77
2023/10/27 06:09:03;;;;;;;27.52;25.92;;;;;;;15.49;100.00;99880.38;5004184;28;20046;-77
2023/10/27 06:11:29;;;;;;;24.90;23.40;;;;;;;15.66;100.00;99877.53;5003156;28;20473;-76
2023/10/27 06:13:56;;;;;;;25.33;23.83;;;;;;;15.73;100.00;99881.63;5003541;28;20050;-77
2023/10/27 06:16:25;;;;;;;24.40;22.83;;;;;;;15.82;100.00;99879.25;4999324;28;20042;-77
2023/10/27 06:18:52;;;;;;;25.13;23.52;;;;;;;16.06;100.00;99879.63;5004803;28;20495;-73
2023/10/27 06:21:41;;;;;;;26.85;25.25;;;;;;;16.18;100.00;99880.19;5008567;28;20062;-73
2023/10/27 06:24:10;;;;;;;29.08;27.48;;;;;;;16.27;100.00;99875.13;4997478;28;20042;-73
2023/10/27 06:26:40;;;;;;;35.33;32.75;;;;;;;16.32;100.00;99872.47;4999430;28;20049;-73
2023/10/27 06:29:10;;;;;;;27.95;26.10;;;;;;;16.47;100.00;99880.53;4992993;28;20053;-73
2023/10/27 06:31:38;;;;;;;28.00;26.13;;;;;;;16.57;100.00;99876.28;5007401;28;20058;-73
2023/10/27 06:34:04;;;;;;;25.38;23.77;;;;;;;16.60;100.00;99873.06;5004444;28;20430;-74
2023/10/27 06:36:32;;;;;;;25.85;24.25;;;;;;;16.69;100.00;99866.91;5004028;28;20059;-74
2023/10/27 06:39:07;;;;;;;39.58;26.50;;;;;;;16.89;100.00;99870.72;4996841;28;20133;-74
2023/10/27 06:41:34;;;;;;;30.75;29.15;;;;;;;16.93;100.00;99863.72;4993008;28;20062;-73
2023/10/27 06:44:01;;;;;;;24.67;23.17;;;;;;;16.92;100.00;99860.25;4994041;28;20047;-73
2023/10/27 06:46:28;;;;;;;27.88;26.20;;;;;;;16.86;100.00;99855.97;4998149;28;20416;-73
2023/10/27 06:48:55;;;;;;;29.00;27.30;;;;;;;17.04;100.00;99857.31;4996291;28;20054;-73
2023/10/27 06:51:23;;;;;;;26.55;24.73;;;;;;;17.08;100.00;99858.38;5008377;28;20481;-73
2023/10/27 06:53:50;;;;;;;23.58;21.98;;;;;;;17.22;100.00;99866.69;5002497;28;20137;-74
2023/10/27 06:56:18;;;;;;;23.52;22.02;;;;;;;17.27;100.00;99868.53;5006623;28;20988;-75
2023/10/27 06:58:53;;;;;;;25.75;24.15;;;;;;;17.42;100.00;99860.47;5001705;28;20065;-74
2023/10/27 07:01:20;;;;;;;26.33;24.73;;;;;;;17.62;100.00;99865.78;5005752;28;20054;-74
2023/10/27 07:03:52;;;;;;;26.88;25.35;;;;;;;17.75;100.00;99866.28;5000623;28;20495;-74
2023/10/27 07:06:19;;;;;;;26.50;25.00;;;;;;;17.67;100.00;99861.47;5007605;28;20050;-74
2023/10/27 07:08:46;;;;;;;25.30;23.70;;;;;;;17.85;100.00;99850.97;5010511;28;20518;-74
2023/10/27 07:11:13;;;;;;;26.05;24.05;;;;;;;18.35;100.00;99853.66;5007146;28;20046;-74
2023/10/27 07:13:42;;;;;;;27.55;25.65;;;;;;;18.85;100.00;99848.22;4997430;28;20050;-74
2023/10/27 07:16:10;;;;;;;26.30;24.70;;;;;;;19.19;100.00;99848.22;5001160;28;20511;-74
2023/10/27 07:18:37;;;;;;;24.58;22.88;;;;;;;19.04;100.00;99843.78;5007401;28;20046;-74
2023/10/27 07:21:06;;;;;;;24.83;23.13;;;;;;;19.53;100.00;99837.34;5011243;28;20064;-76
2023/10/27 07:23:36;;;;;;;26.95;24.85;;;;;;;19.59;100.00;99833.50;4998907;28;20061;-76
2023/10/27 07:26:11;;;;;;;25.25;23.52;;;;;;;20.13;100.00;99829.63;4997393;28;20401;-76
2023/10/27 07:28:45;;;;;;;24.10;22.27;;;;;;;19.82;100.00;99831.13;5004818;28;20446;-77
2023/10/27 07:31:13;;;;;;;25.63;24.02;;;;;;;20.31;100.00;99828.03;5003920;28;20056;-77
2023/10/27 07:33:40;;;;;;;26.35;24.75;;;;;;;20.25;100.00;99826.50;4993966;28;20500;-77
2023/10/27 07:36:07;;;;;;;25.13;23.52;;;;;;;19.95;100.00;99818.84;5000599;28;20057;-77
2023/10/27 07:38:34;;;;;;;24.05;22.65;;;;;;;20.17;100.00;99829.84;5003556;28;20056;-74
2023/10/27 07:41:02;;;;;;;26.40;24.60;;;;;;;20.37;100.00;99834.16;5011370;28;20427;-76
2023/10/27 07:43:29;;;;;;;26.65;24.85;;;;;;;20.49;100.00;99834.50;5004066;28;20503;-77
2023/10/27 07:46:00;;;;;;;26.65;24.85;;;;;;;20.38;100.00;99826.84;5004270;28;20446;-76
2023/10/27 07:48:29;;;;;;;29.80;27.70;;;;;;;20.42;100.00;99830.56;5007527;28;20730;-76
2023/10/27 07:50:58;;;;;;;24.40;22.60;;;;;;;20.35;100.00;99825.53;4991606;28;20054;-77
2023/10/27 07:53:30;;;;;;;23.48;21.88;;;;;;;20.42;100.00;99834.06;4993662;28;20057;-76
2023/10/27 07:55:57;;;;;;;30.83;24.52;;;;;;;20.35;100.00;99826.34;5000407;28;20535;-76
2023/10/27 07:58:52;;;;;;;25.55;23.75;;;;;;;20.29;100.00;99832.91;5001954;28;20049;-76
2023/10/27 08:01:20;;;;;;;26.08;24.27;;;;;;;20.28;100.00;99839.41;5001787;28;20050;-77
2023/10/27 08:03:47;;;;;;;25.60;23.88;;;;;;;20.19;100.00;99830.38;5005712;28;20041;-77
2023/10/27 08:06:14;;;;;;;26.35;24.55;;;;;;;20.34;100.00;99823.94;5003129;28;20522;-77
2023/10/27 08:08:41;;;;;;;26.15;24.42;;;;;;;20.35;100.00;99820.94;5007151;28;20124;-77
2023/10/27 08:11:08;;;;;;;24.45;22.75;;;;;;;20.41;100.00;99820.88;5009778;28;20050;-76
2023/10/27 08:13:44;;;;;;;22.85;21.25;;;;;;;20.53;100.00;99824.75;4994583;28;20054;-74
2023/10/27 08:16:12;;;;;;;23.42;21.90;;;;;;;20.53;100.00;99824.75;5004079;28;20485;-77
2023/10/27 08:18:46;;;;;;;23.58;21.98;;;;;;;20.68;100.00;99815.63;5006586;28;20058;-74
2023/10/27 08:21:30;;;;;;;25.00;23.42;;;;;;;20.89;100.00;99816.09;5004277;28;20058;-73
2023/10/27 08:23:57;;;;;;;25.58;23.98;;;;;;;21.05;100.00;99817.41;4994375;28;20044;-74
2023/10/27 08:26:24;;;;;;;22.52;20.92;;;;;;;21.32;100.00;99810.44;5005922;28;20062;-73
2023/10/27 08:28:51;;;;;;;23.30;21.60;;;;;;;21.54;100.00;99820.59;5006638;28;20053;-74
2023/10/27 08:31:18;;;;;;;22.38;20.60;;;;;;;21.71;100.00;99812.69;5003298;28;20042;-74
2023/10/27 08:33:59;;;;;;;22.58;20.90;;;;;;;21.92;100.00;99814.97;4996761;28;20093;-74
2023/10/27 08:36:26;;;;;;;27.27;25.25;;;;;;;21.88;100.00;99809.38;5001257;28;20134;-74
2023/10/27 08:38:54;;;;;;;32.50;29.20;;;;;;;22.08;100.00;99808.09;4998966;28;20058;-74
2023/10/27 08:41:21;;;;;;;36.55;32.88;;;;;;;22.05;100.00;99805.22;4996338;28;20058;-74
2023/10/27 08:44:08;;;;;;;41.00;37.08;;;;;;;22.21;100.00;99798.41;5001514;28;20141;-74
2023/10/27 08:46:43;;;;;;;40.65;35.45;;;;;;;22.32;100.00;99804.34;5002880;28;20057;-74
2023/10/27 08:49:12;;;;;;;31.30;29.20;;;;;;;22.11;100.00;99802.09;5004969;28;20060;-74
2023/10/27 08:51:39;;;;;;;25.85;23.95;;;;;;;22.32;100.00;99791.63;4996503;28;20056;-74
2023/10/27 08:54:13;;;;;;;24.17;22.45;;;;;;;22.47;100.00;99798.59;5012717;28;20064;-73
2023/10/27 08:56:56;;;;;;;26.23;23.98;;;;;;;22.54;100.00;99795.44;4995021;28;20057;-74
2023/10/27 08:59:25;;;;;;;27.10;25.40;;;;;;;22.59;100.00;99796.13;4995780;28;20129;-74
2023/10/27 09:01:54;;;;;;;27.75;26.25;;;;;;;22.73;100.00;99779.84;5002002;28;20061;-74
2023/10/27 09:04:23;;;;;;;27.83;26.17;;;;;;;22.91;100.00;99783.44;5013542;28;20046;-74
2023/10/27 09:06:50;;;;;;;30.02;27.65;;;;;;;23.21;100.00;99786.47;4999120;28;20180;-75
2023/10/27 09:09:19;;;;;;;26.13;24.63;;;;;;;23.28;100.00;99787.59;5007138;28;20045;-77
2023/10/27 09:11:48;;;;;;;32.85;31.15;;;;;;;23.57;100.00;99785.44;5000435;28;20568;-77
2023/10/27 09:14:23;;;;;;;29.65;27.98;;;;;;;23.94;100.00;99776.00;5007040;28;20096;-76
2023/10/27 09:16:51;;;;;;;28.33;26.63;;;;;;;23.38;100.00;99786.50;5000401;28;20065;-74
2023/10/27 09:19:26;;;;;;;28.15;26.35;;;;;;;23.88;100.00;99777.28;5008577;28;20058;-75
2023/10/27 09:21:54;;;;;;;26.75;25.05;;;;;;;24.07;100.00;99780.47;4998893;28;20635;-74
2023/10/27 09:24:27;;;;;;;25.17;23.58;;;;;;;24.18;100.00;99764.69;5001244;28;20046;-74
2023/10/27 09:27:13;;;;;;;25.33;23.73;;;;;;;24.10;100.00;99777.13;5075566;27;20401;-75
2023/10/27 09:29:42;;;;;;;24.08;22.48;;;;;;;24.02;100.00;99766.25;5076057;28;20047;-74
2023/10/27 09:32:24;;;;;;;24.35;22.85;;;;;;;24.12;100.00;99774.88;5079580;28;20443;-74
2023/10/27 09:35:07;;;;;;;;;;;;;;;24.22;100.00;99763.72;5078408;28;20522;-78
2023/10/27 09:37:37;;;;;;;26.58;24.88;;;;;;;24.30;100.00;99747.72;5077347;28;19932;-78
2023/10/27 09:40:09;;;;;;;30.05;28.55;;;;;;;24.59;100.00;99756.03;5084245;28;20131;-78
2023/10/27 09:42:38;;;;;;;29.75;28.15;;;;;;;24.39;100.00;99740.41;5083200;28;20577;-78
2023/10/27 09:45:11;;;;;;;27.40;25.20;;;;;;;24.76;100.00;99730.75;5081785;28;20476;-77
2023/10/27 09:47:46;;;;;;;28.95;27.25;;;;;;;25.03;100.00;99734.19;5077905;28;20041;-78
2023/10/27 09:50:15;;;;;;;25.88;24.38;;;;;;;24.68;100.00;99718.78;5079715;28;20080;-76
2023/10/27 09:52:46;;;;;;;29.17;27.67;;;;;;;24.77;100.00;99707.91;5073115;28;20754;-74
2023/10/27 09:55:13;;;;;;;25.63;24.23;;;;;;;24.88;100.00;99711.06;5075212;28;20534;-75
2023/10/27 09:57:52;;;;;;;30.60;28.90;;;;;;;24.86;100.00;99702.44;5073765;28;20340;-74
2023/10/27 10:00:22;;;;;;;33.72;32.03;;;;;;;24.42;100.00;99702.59;5074576;28;20055;-74
2023/10/27 10:02:49;;;;;;;35.67;33.88;;;;;;;24.65;100.00;99681.44;5081927;28;20055;-74
2023/10/27 10:05:17;;;;;;;29.00;27.60;;;;;;;24.32;100.00;99678.47;5075437;28;20053;-74
2023/10/27 10:07:47;;;;;;;27.63;26.13;;;;;;;24.99;100.00;99679.69;5072243;28;20056;-78
2023/10/27 10:10:24;;;;;;;25.48;24.08;;;;;;;24.81;100.00;99667.31;5072175;28;20076;-77
2023/10/27 10:13:09;;;;;;;27.60;26.10;;;;;;;24.73;100.00;99660.03;5071044;28;20079;-74
2023/10/27 10:15:37;;;;;;;36.25;34.45;;;;;;;24.27;100.00;99661.56;5081425;28;20131;-77
2023/10/27 10:18:44;;;;;;;34.33;32.40;;;;;;;23.78;100.00;99653.66;5070722;28;20057;-77
2023/10/27 10:21:35;;;;;;;33.22;31.52;;;;;;;24.13;100.00;99643.56;5070951;28;20500;-74
2023/10/27 10:24:10;;;;;;;26.65;25.15;;;;;;;24.79;100.00;99645.16;5067383;28;20049;-74
2023/10/27 10:27:10;;;;;;;31.38;29.67;;;;;;;24.62;100.00;99635.94;5077701;28;20040;-74
2023/10/27 10:29:39;;;;;;;29.60;27.90;;;;;;;24.52;100.00;99630.88;5068262;28;20048;-75
2023/10/27 10:32:35;;;;;;;29.40;27.13;;;;;;;23.91;100.00;99630.22;5072116;28;20045;-74
2023/10/27 10:35:23;;;;;;;27.88;26.27;;;;;;;24.18;100.00;99626.34;5081407;28;20503;-74
2023/10/27 10:37:53;;;;;;;29.05;27.45;;;;;;;24.16;100.00;99626.66;5060736;28;20483;-78
2023/10/27 10:40:23;;;;;;;30.48;28.77;;;;;;;24.16;100.00;99639.41;5067593;28;20052;-77
2023/10/27 10:43:19;;;;;;;28.33;26.73;;;;;;;23.87;100.00;99627.31;5067255;28;20097;-77
2023/10/27 10:45:50;;;;;;;27.15;25.65;;;;;;;23.38;100.00;99626.66;5061735;28;20056;-78
2023/10/27 10:48:17;;;;;;;27.30;25.77;;;;;;;23.32;100.00;99623.31;5060419;28;20049;-78
2023/10/27 10:50:45;;;;;;;27.48;25.80;;;;;;;23.19;100.00;99613.44;5057414;28;20110;-78
2023/10/27 10:53:15;;;;;;;29.55;27.75;;;;;;;23.08;100.00;99596.69;5062629;28;20573;-78
2023/10/27 10:55:44;;;;;;;31.83;30.13;;;;;;;24.09;100.00;99601.16;5060637;28;20118;-78
2023/10/27 10:58:11;;;;;;;40.45;38.35;;;;;;;24.26;100.00;99586.72;5062125;28;20498;-78
2023/10/27 11:00:38;;;;;;;29.58;27.98;;;;;;;24.76;100.00;99573.28;5066705;28;20474;-78
2023/10/27 11:03:10;;;;;;;33.85;32.15;;;;;;;24.71;100.00;99568.03;5067970;28;20439;-78
2023/10/27 11:05:43;;;;;;;30.30;28.80;;;;;;;25.19;100.00;99574.16;5063492;28;20052;-78
2023/10/27 11:08:10;;;;;;;34.67;32.80;;;;;;;26.09;97.24;99572.72;5069425;28;20044;-78
2023/10/27 11:10:37;;;;;;;33.65;31.90;;;;;;;26.63;90.31;99561.69;5063785;28;20496;-78
2023/10/27 11:13:10;;;;;;;30.08;28.38;;;;;;;26.75;86.46;99579.91;5060954;28;20047;-78
2023/10/27 11:15:48;;;;;;;28.42;26.83;;;;;;;26.47;87.02;99580.56;5060339;28;20045;-78
2023/10/27 11:18:17;;;;;;;26.35;24.75;;;;;;;26.14;91.67;99578.72;5055909;28;20045;-78
2023/10/27 11:20:45;;;;;;;24.65;23.05;;;;;;;26.08;91.96;99576.56;5066111;28;20413;-78
2023/10/27 11:23:13;;;;;;;24.95;23.25;;;;;;;25.59;95.42;99574.47;5058797;28;20053;-78